Time;durP1;ratioP1;P1;durP2;ratioP2;P2;SDS_P1;SDS_P2;PMS_P1;PMS_P2;Temp;Humidity;BMP_temperature;BMP_pressure;BME280_temperature;BME280_humidity;BME280_pressure;Samples;Min_cycle;Max_cycle;Signal;HPM_P1;HPM_P2
2022/08/04 00:02:23;;;;;;;2.08;1.50;;;19.10;99.90;;;;;;5079266;28;20100;-73
2022/08/04 00:04:59;;;;;;;2.20;1.65;;;19.20;99.90;;;;;;5076707;28;20089;-73
2022/08/04 00:07:44;;;;;;;1.60;1.50;;;19.20;99.90;;;;;;5074667;28;20032;-73
2022/08/04 00:10:10;;;;;;;2.63;1.58;;;19.20;99.90;;;;;;5071974;28;20080;-73
2022/08/04 00:12:44;;;;;;;3.17;1.70;;;19.20;99.90;;;;;;5077579;28;20071;-73
2022/08/04 00:15:13;;;;;;;3.28;1.50;;;19.10;99.90;;;;;;5074718;28;20036;-74
2022/08/04 00:17:42;;;;;;;2.85;1.55;;;19.00;99.90;;;;;;5074488;28;20704;-73
2022/08/04 00:20:10;;;;;;;2.28;1.45;;;19.00;99.90;;;;;;5075973;28;20044;-73
2022/08/04 00:22:40;;;;;;;3.50;1.50;;;19.00;99.90;;;;;;5071915;28;20964;-74
2022/08/04 00:25:06;;;;;;;1.70;1.60;;;19.00;99.90;;;;;;5075947;28;20024;-74
2022/08/04 00:27:32;;;;;;;1.70;1.60;;;19.10;99.90;;;;;;5073452;28;20123;-74
2022/08/04 00:29:58;;;;;;;1.35;1.30;;;19.00;99.90;;;;;;5075813;28;20067;-74
2022/08/04 00:32:25;;;;;;;2.17;1.45;;;19.00;99.90;;;;;;5076168;28;20039;-74
2022/08/04 00:34:53;;;;;;;2.42;1.65;;;19.10;99.90;;;;;;5077783;28;20122;-73
2022/08/04 00:37:23;;;;;;;1.35;1.25;;;19.10;99.90;;;;;;5070921;28;20036;-74
2022/08/04 00:39:50;;;;;;;2.63;1.85;;;19.10;99.90;;;;;;5073982;28;20047;-74
2022/08/04 00:42:48;;;;;;;2.10;1.90;;;19.00;99.90;;;;;;5073978;28;20048;-74
2022/08/04 00:45:28;;;;;;;2.85;1.30;;;18.80;99.90;;;;;;5053239;28;20074;-75
2022/08/04 00:48:35;;;;;;;2.17;1.98;;;18.70;99.90;;;;;;5076408;28;20476;-73
2022/08/04 00:51:12;;;;;;;1.58;1.48;;;18.70;99.90;;;;;;5062474;28;20047;-74
2022/08/04 00:54:03;;;;;;;2.90;1.60;;;18.70;99.90;;;;;;5072186;28;20036;-74
2022/08/04 00:56:50;;;;;;;2.58;1.75;;;18.70;99.90;;;;;;5074577;28;20146;-73
2022/08/04 00:59:38;;;;;;;2.33;1.70;;;18.80;99.90;;;;;;5056297;28;20063;-73
2022/08/04 01:02:14;;;;;;;2.17;1.60;;;18.80;99.90;;;;;;5075241;28;20052;-73
2022/08/04 01:04:57;;;;;;;1.58;1.40;;;18.80;99.90;;;;;;5075204;28;20071;-73
2022/08/04 01:07:56;;;;;;;4.18;2.42;;;18.70;99.90;;;;;;5075958;28;20043;-73
2022/08/04 01:10:57;;;;;;;3.47;1.95;;;18.70;99.90;;;;;;5073978;28;20056;-74
2022/08/04 01:13:57;;;;;;;2.25;1.80;;;18.60;99.90;;;;;;5072823;28;20141;-73
2022/08/04 01:16:25;;;;;;;2.63;1.80;;;18.60;99.90;;;;;;5051564;28;20036;-74
2022/08/04 01:19:01;;;;;;;2.33;1.80;;;18.60;99.90;;;;;;5072810;28;20035;-74
2022/08/04 01:21:30;;;;;;;2.20;1.70;;;18.60;99.90;;;;;;5074976;28;20043;-74
2022/08/04 01:24:16;;;;;;;1.90;1.60;;;18.70;99.90;;;;;;5073591;28;20476;-74
2022/08/04 01:27:00;;;;;;;3.55;2.28;;;18.70;99.90;;;;;;5035561;28;20127;-73
2022/08/04 01:29:29;;;;;;;2.05;1.80;;;18.70;99.90;;;;;;5072357;28;20108;-73
2022/08/04 01:32:06;;;;;;;2.08;1.98;;;18.60;99.90;;;;;;5077122;28;20034;-73
2022/08/04 01:34:50;;;;;;;5.05;2.22;;;18.60;99.90;;;;;;5079737;28;20085;-73
2022/08/04 01:37:36;;;;;;;3.63;1.85;;;18.60;99.90;;;;;;5075500;28;20173;-74
2022/08/04 01:40:05;;;;;;;2.20;1.70;;;18.60;99.90;;;;;;5079195;28;20075;-74
2022/08/04 01:42:33;;;;;;;2.92;2.25;;;18.50;99.90;;;;;;5059534;28;20504;-73
2022/08/04 01:45:06;;;;;;;2.67;1.95;;;18.50;99.90;;;;;;5077259;28;20051;-73
2022/08/04 01:47:35;;;;;;;1.85;1.75;;;18.50;99.90;;;;;;5077363;28;20523;-73
2022/08/04 01:50:06;;;;;;;6.85;1.67;;;18.50;99.90;;;;;;5083280;28;20089;-74
2022/08/04 01:52:35;;;;;;;2.30;2.10;;;18.50;99.90;;;;;;5080660;28;20055;-73
2022/08/04 01:55:03;;;;;;;3.83;2.20;;;18.50;99.90;;;;;;5078708;28;20122;-74
2022/08/04 01:57:31;;;;;;;2.10;1.90;;;18.50;99.90;;;;;;5076147;28;20089;-75
2022/08/04 01:59:58;;;;;;;2.00;1.80;;;18.50;99.90;;;;;;5078065;28;20048;-74
2022/08/04 02:02:24;;;;;;;2.08;1.88;;;18.40;99.90;;;;;;5079969;28;20123;-74
2022/08/04 02:04:50;;;;;;;1.90;1.80;;;18.40;99.90;;;;;;5070784;28;20043;-74
2022/08/04 02:07:32;;;;;;;2.20;2.00;;;18.40;99.90;;;;;;5075259;28;20032;-74
2022/08/04 02:10:02;;;;;;;4.63;1.97;;;18.50;99.90;;;;;;5075415;28;20118;-74
2022/08/04 02:12:39;;;;;;;2.40;2.20;;;18.40;99.90;;;;;;5069420;28;22288;-75
2022/08/04 02:15:29;;;;;;;2.65;2.10;;;18.40;99.90;;;;;;5071383;28;20039;-75
2022/08/04 02:18:18;;;;;;;2.60;2.40;;;18.40;99.90;;;;;;5072122;28;20040;-75
2022/08/04 02:20:47;;;;;;;3.97;2.40;;;18.40;99.90;;;;;;5056275;28;20131;-75
2022/08/04 02:23:29;;;;;;;4.03;2.40;;;18.40;99.90;;;;;;5071979;28;20589;-74
2022/08/04 02:26:02;;;;;;;2.30;2.08;;;18.40;99.90;;;;;;5049221;28;20043;-75
2022/08/04 02:28:39;;;;;;;2.30;2.10;;;18.40;99.90;;;;;;5068589;28;20044;-67
2022/08/04 02:31:18;;;;;;;2.63;2.30;;;18.30;99.90;;;;;;5070871;28;20029;-66
2022/08/04 02:33:49;;;;;;;2.33;2.13;;;18.30;99.90;;;;;;5073150;28;20492;-67
2022/08/04 02:36:52;;;;;;;2.45;2.22;;;18.30;99.90;;;;;;5070171;28;20127;-67
2022/08/04 02:39:19;;;;;;;2.25;2.05;;;18.20;99.90;;;;;;5069733;28;20068;-66
2022/08/04 02:41:47;;;;;;;2.35;2.22;;;18.10;99.90;;;;;;5068436;28;20139;-66
2022/08/04 02:44:18;;;;;;;2.60;2.40;;;18.10;99.90;;;;;;5066578;28;20039;-66
2022/08/04 02:46:46;;;;;;;2.42;2.13;;;18.10;99.90;;;;;;5068918;28;20519;-66
2022/08/04 02:49:13;;;;;;;2.92;2.30;;;18.10;99.90;;;;;;5070042;28;20029;-66
2022/08/04 02:51:46;;;;;;;2.70;2.50;;;18.10;99.90;;;;;;5068335;28;20040;-66
2022/08/04 02:54:14;;;;;;;2.85;2.60;;;18.10;99.90;;;;;;5067446;28;20424;-66
2022/08/04 02:56:44;;;;;;;2.67;2.20;;;18.10;99.90;;;;;;5070441;28;20554;-66
2022/08/04 02:59:11;;;;;;;4.60;2.50;;;18.10;99.90;;;;;;5064753;28;20024;-66
2022/08/04 03:01:37;;;;;;;2.47;2.28;;;18.10;99.90;;;;;;5079012;28;20040;-66
2022/08/04 03:04:09;;;;;;;3.08;2.72;;;18.10;99.90;;;;;;5077795;28;20115;-67
2022/08/04 03:07:02;;;;;;;5.68;5.10;;;18.00;99.90;;;;;;5075437;28;20058;-67
2022/08/04 03:10:04;;;;;;;2.83;2.60;;;18.10;99.90;;;;;;5071707;28;20071;-66
2022/08/04 03:12:54;;;;;;;7.70;3.03;;;18.10;99.90;;;;;;5075836;28;20035;-66
2022/08/04 03:15:39;;;;;;;4.97;2.60;;;18.10;99.90;;;;;;5073292;28;20121;-67
2022/08/04 03:18:23;;;;;;;2.38;2.17;;;18.10;99.90;;;;;;5078492;28;20110;-67
2022/08/04 03:21:20;;;;;;;3.60;2.30;;;18.10;99.90;;;;;;5075633;28;20075;-67
2022/08/04 03:23:54;;;;;;;4.03;3.58;;;18.00;99.90;;;;;;5074775;28;20089;-66
2022/08/04 03:26:28;;;;;;;5.53;2.50;;;18.00;99.90;;;;;;5077829;28;20036;-74
2022/08/04 03:29:14;;;;;;;3.05;2.33;;;17.90;99.90;;;;;;5079308;28;20055;-74
2022/08/04 03:32:07;;;;;;;3.45;2.28;;;17.80;99.90;;;;;;5059283;28;20036;-74
2022/08/04 03:34:54;;;;;;;2.83;2.45;;;17.90;99.90;;;;;;5077148;28;20035;-74
2022/08/04 03:38:01;;;;;;;3.03;2.50;;;17.90;99.90;;;;;;5077780;28;20123;-74
2022/08/04 03:40:35;;;;;;;2.92;2.30;;;17.90;99.90;;;;;;4981051;28;20247;-74
2022/08/04 03:43:25;;;;;;;2.85;2.65;;;17.90;99.90;;;;;;4971176;28;20054;-74
2022/08/04 03:46:06;;;;;;;2.70;2.50;;;17.80;99.90;;;;;;5045715;28;21655;-73
2022/08/04 03:48:50;;;;;;;2.78;2.58;;;17.80;99.90;;;;;;5075979;28;20043;-74
2022/08/04 03:55:12;;;;;;;3.00;2.67;;;17.80;99.90;;;;;;5077497;28;20055;-73
2022/08/04 03:58:22;;;;;;;3.35;2.42;;;17.80;99.90;;;;;;5074916;28;20568;-73
2022/08/04 04:01:05;;;;;;;2.67;2.47;;;17.80;99.90;;;;;;5073541;28;20126;-73
2022/08/04 04:03:50;;;;;;;3.75;2.45;;;17.80;99.90;;;;;;5074784;28;20048;-74
2022/08/04 04:06:33;;;;;;;2.75;2.55;;;17.90;99.90;;;;;;5074558;28;20509;-74
2022/08/04 04:09:12;;;;;;;5.28;2.75;;;17.90;99.90;;;;;;5069984;28;20094;-74
2022/08/04 04:11:41;;;;;;;2.85;2.65;;;17.90;99.90;;;;;;5073410;28;20063;-74
2022/08/04 04:14:34;;;;;;;2.10;1.98;;;17.90;99.90;;;;;;5076673;28;20028;-73
2022/08/04 04:17:37;;;;;;;2.42;2.22;;;18.00;99.90;;;;;;5076272;28;20040;-74
2022/08/04 04:20:35;;;;;;;2.50;2.30;;;18.00;99.90;;;;;;5078415;28;20040;-74
2022/08/04 04:23:18;;;;;;;3.00;2.50;;;18.00;99.90;;;;;;5029667;28;20063;-73
2022/08/04 04:26:14;;;;;;;2.85;2.65;;;18.00;99.90;;;;;;5071505;28;20043;-73
2022/08/04 04:28:56;;;;;;;5.88;2.70;;;18.10;99.90;;;;;;5075559;28;20454;-74
2022/08/04 04:31:40;;;;;;;3.00;2.80;;;18.10;99.90;;;;;;5052958;28;20122;-73
2022/08/04 04:34:30;;;;;;;2.65;2.28;;;18.20;99.90;;;;;;5074724;28;20028;-73
2022/08/04 04:37:12;;;;;;;3.05;2.75;;;18.30;99.90;;;;;;5072834;28;20412;-74
2022/08/04 04:40:01;;;;;;;3.95;3.15;;;18.40;99.90;;;;;;5076480;28;20059;-73
2022/08/04 04:42:36;;;;;;;7.40;2.60;;;18.50;99.90;;;;;;5071336;28;20041;-73
2022/08/04 04:45:26;;;;;;;2.70;2.50;;;18.60;99.90;;;;;;5072246;28;20028;-73
2022/08/04 04:48:12;;;;;;;4.28;2.70;;;18.70;99.90;;;;;;5077593;28;20038;-73
2022/08/04 04:50:51;;;;;;;2.60;2.40;;;18.90;99.90;;;;;;5076633;28;20032;-74
2022/08/04 04:53:40;;;;;;;4.25;2.42;;;18.90;99.90;;;;;;5077324;28;20040;-73
2022/08/04 04:56:15;;;;;;;2.67;2.40;;;19.10;99.90;;;;;;5074336;28;20039;-73
2022/08/04 04:58:42;;;;;;;2.58;2.38;;;19.20;99.90;;;;;;5077794;28;20405;-73
2022/08/04 05:01:40;;;;;;;2.63;2.30;;;19.30;99.90;;;;;;5070982;28;20616;-73
2022/08/04 05:04:34;;;;;;;4.20;2.70;;;19.30;99.90;;;;;;5079587;28;20060;-72
2022/08/04 05:07:02;;;;;;;7.43;2.85;;;19.50;99.90;;;;;;5077670;28;20079;-73
2022/08/04 05:09:51;;;;;;;4.22;3.00;;;19.60;99.90;;;;;;5079180;28;20622;-73
2022/08/04 05:12:24;;;;;;;3.30;2.75;;;19.80;99.90;;;;;;5061644;28;20040;-73
2022/08/04 05:14:52;;;;;;;3.65;3.08;;;19.90;99.90;;;;;;5061710;28;20021;-73
2022/08/04 05:17:24;;;;;;;3.75;2.70;;;19.90;99.90;;;;;;5079916;28;20050;-74
2022/08/04 05:19:52;;;;;;;2.92;2.70;;;20.10;99.90;;;;;;5079462;28;21161;-73
2022/08/04 05:22:30;;;;;;;2.75;2.53;;;20.20;99.90;;;;;;5081591;28;20048;-73
2022/08/04 05:25:03;;;;;;;3.15;2.78;;;20.30;99.90;;;;;;5082094;28;20564;-73
2022/08/04 05:27:39;;;;;;;5.43;2.88;;;20.50;99.90;;;;;;5077259;28;20519;-73
2022/08/04 05:30:06;;;;;;;3.25;2.63;;;20.60;99.90;;;;;;5076687;28;20047;-73
2022/08/04 05:33:03;;;;;;;4.80;2.92;;;20.70;99.90;;;;;;5072023;28;20472;-73
2022/08/04 05:35:34;;;;;;;4.95;2.75;;;20.80;99.90;;;;;;5081984;28;20044;-73
2022/08/04 05:38:02;;;;;;;5.13;3.08;;;21.00;99.90;;;;;;5083233;28;20047;-73
2022/08/04 05:40:28;;;;;;;3.95;2.72;;;21.10;99.90;;;;;;5078552;28;20436;-73
2022/08/04 05:42:55;;;;;;;2.78;2.53;;;21.20;99.90;;;;;;5077239;28;20041;-73
2022/08/04 05:45:23;;;;;;;3.10;2.67;;;21.30;99.90;;;;;;5081659;28;20024;-73
2022/08/04 05:47:51;;;;;;;4.32;2.42;;;21.50;99.90;;;;;;5082079;28;20032;-73
2022/08/04 05:50:18;;;;;;;2.72;2.53;;;21.70;99.90;;;;;;5077341;28;20119;-73
2022/08/04 05:52:45;;;;;;;3.58;2.47;;;21.90;99.90;;;;;;5061274;28;20485;-73
2022/08/04 05:55:12;;;;;;;4.40;2.80;;;22.10;99.90;;;;;;5077093;28;20032;-72
2022/08/04 05:57:40;;;;;;;2.92;2.40;;;22.20;99.90;;;;;;5075756;28;20123;-73
2022/08/04 06:00:08;;;;;;;6.20;2.30;;;22.40;99.90;;;;;;5075820;28;20082;-73
2022/08/04 06:02:36;;;;;;;4.47;2.38;;;22.50;99.90;;;;;;5080069;28;20043;-73
2022/08/04 06:05:04;;;;;;;2.63;2.40;;;22.60;99.90;;;;;;5075568;28;20028;-73
2022/08/04 06:07:30;;;;;;;5.00;2.47;;;22.70;99.90;;;;;;5074159;28;20073;-73
2022/08/04 06:09:55;;;;;;;2.83;2.50;;;22.90;99.90;;;;;;5075428;28;20040;-73
2022/08/04 06:12:30;;;;;;;4.63;2.30;;;23.00;99.90;;;;;;5078095;28;20058;-73
2022/08/04 06:14:57;;;;;;;2.42;2.22;;;23.00;99.90;;;;;;5079062;28;20123;-73
2022/08/04 06:17:36;;;;;;;2.75;2.55;;;23.10;99.90;;;;;;5081889;28;20389;-73
2022/08/04 06:20:04;;;;;;;2.80;2.50;;;23.30;99.90;;;;;;5080224;28;20032;-74
2022/08/04 06:22:33;;;;;;;2.63;2.42;;;23.30;99.90;;;;;;5072193;28;20044;-73
2022/08/04 06:25:01;;;;;;;4.18;2.38;;;23.50;99.90;;;;;;5056759;28;20496;-73
2022/08/04 06:27:29;;;;;;;2.85;2.53;;;23.50;99.80;;;;;;5069516;28;20108;-76
2022/08/04 06:29:57;;;;;;;2.60;2.38;;;23.60;99.80;;;;;;5078328;28;20059;-75
2022/08/04 06:32:35;;;;;;;2.50;2.30;;;23.70;99.70;;;;;;5076635;28;20105;-76
2022/08/04 06:35:03;;;;;;;3.45;2.55;;;23.70;99.70;;;;;;5074977;28;20076;-77
2022/08/04 06:37:30;;;;;;;2.28;2.17;;;23.70;99.10;;;;;;5079129;28;20031;-76
2022/08/04 06:39:57;;;;;;;2.58;2.38;;;23.80;99.00;;;;;;5069462;28;20036;-77
2022/08/04 06:42:26;;;;;;;2.60;2.40;;;23.80;99.10;;;;;;5066703;28;20043;-75
2022/08/04 06:44:57;;;;;;;9.10;3.55;;;23.90;99.50;;;;;;5063127;28;20063;-75
2022/08/04 06:47:23;;;;;;;2.72;2.20;;;24.10;99.20;;;;;;5063469;28;20059;-75
2022/08/04 06:49:52;;;;;;;2.60;2.17;;;24.20;98.70;;;;;;5073412;28;20058;-76
2022/08/04 06:52:19;;;;;;;2.55;2.35;;;24.30;98.40;;;;;;5072314;28;20656;-75
2022/08/04 06:54:51;;;;;;;2.63;2.42;;;24.30;98.20;;;;;;5079058;28;20677;-75
2022/08/04 06:57:20;;;;;;;3.20;2.33;;;24.30;98.70;;;;;;5070902;28;20119;-76
2022/08/04 06:59:52;;;;;;;4.93;2.63;;;24.50;98.70;;;;;;5073835;28;20705;-76
2022/08/04 07:02:24;;;;;;;2.33;2.20;;;24.50;99.00;;;;;;5064718;28;20044;-76
2022/08/04 07:04:50;;;;;;;2.58;2.38;;;24.70;98.90;;;;;;5078960;28;20064;-75
2022/08/04 07:07:16;;;;;;;3.42;2.20;;;24.80;98.10;;;;;;5072836;28;20119;-75
2022/08/04 07:09:42;;;;;;;2.90;2.15;;;25.00;97.30;;;;;;5075754;28;20029;-75
2022/08/04 07:12:09;;;;;;;2.58;2.38;;;25.10;96.40;;;;;;5069058;28;20032;-75
2022/08/04 07:14:35;;;;;;;3.22;2.35;;;25.10;96.70;;;;;;5075251;28;20119;-76
2022/08/04 07:17:05;;;;;;;2.40;2.20;;;25.00;96.90;;;;;;5074636;28;20041;-76
2022/08/04 07:19:34;;;;;;;4.57;1.98;;;25.10;97.50;;;;;;5075699;28;20044;-76
2022/08/04 07:22:05;;;;;;;4.93;2.42;;;25.20;97.00;;;;;;5076370;28;20516;-78
2022/08/04 07:24:32;;;;;;;4.82;2.45;;;25.40;97.10;;;;;;5074987;28;20115;-78
2022/08/04 07:26:59;;;;;;;4.93;2.10;;;25.50;95.60;;;;;;5072693;28;20045;-79
2022/08/04 07:29:25;;;;;;;2.35;2.00;;;25.50;94.10;;;;;;5075948;28;20036;-77
2022/08/04 07:31:52;;;;;;;2.15;1.95;;;25.60;94.10;;;;;;5049552;28;20036;-75
2022/08/04 07:34:18;;;;;;;2.22;1.80;;;25.70;92.70;;;;;;5070330;28;20043;-77
2022/08/04 07:36:44;;;;;;;2.13;1.90;;;25.80;93.40;;;;;;5071031;28;20093;-76
2022/08/04 07:39:10;;;;;;;1.77;1.67;;;25.80;93.10;;;;;;5076523;28;20533;-76
2022/08/04 07:41:36;;;;;;;2.45;1.70;;;25.80;92.90;;;;;;5076614;28;20032;-76
2022/08/04 07:44:03;;;;;;;3.05;1.95;;;25.90;92.70;;;;;;5072229;28;20028;-79
2022/08/04 07:46:29;;;;;;;2.53;2.03;;;26.00;92.30;;;;;;5072949;28;20070;-77
2022/08/04 07:48:54;;;;;;;2.00;1.85;;;26.10;92.40;;;;;;5071321;28;20708;-79
2022/08/04 07:51:21;;;;;;;2.03;1.80;;;26.20;92.90;;;;;;5076812;28;20130;-81
2022/08/04 07:53:47;;;;;;;2.50;2.28;;;26.30;92.90;;;;;;5072013;28;20170;-73
2022/08/04 07:56:15;;;;;;;2.22;1.77;;;26.40;92.90;;;;;;5059379;28;20567;-69
2022/08/04 07:58:41;;;;;;;2.13;1.92;;;26.50;92.70;;;;;;5077669;28;20024;-69
2022/08/04 08:01:08;;;;;;;2.88;2.22;;;26.50;92.50;;;;;;5071010;28;20480;-69
2022/08/04 08:03:34;;;;;;;4.88;2.00;;;26.40;91.80;;;;;;5069585;28;20051;-67
2022/08/04 08:06:00;;;;;;;8.75;2.28;;;26.50;92.10;;;;;;5063670;28;20444;-68
2022/08/04 08:08:26;;;;;;;2.28;1.63;;;26.50;92.50;;;;;;5070703;28;20206;-68
2022/08/04 08:10:52;;;;;;;1.77;1.60;;;26.60;91.40;;;;;;5052485;28;20126;-69
2022/08/04 08:13:18;;;;;;;3.88;1.80;;;26.60;92.00;;;;;;5071919;28;20033;-68
2022/08/04 08:15:45;;;;;;;8.60;2.08;;;26.70;92.10;;;;;;5061067;28;20058;-68
2022/08/04 08:18:11;;;;;;;1.70;1.60;;;26.70;92.10;;;;;;5073516;28;20031;-75
2022/08/04 08:20:37;;;;;;;2.55;1.98;;;26.80;90.70;;;;;;5071370;28;20067;-77
2022/08/04 08:23:03;;;;;;;4.15;2.28;;;26.90;90.50;;;;;;5070255;28;20739;-69
2022/08/04 08:25:32;;;;;;;2.45;1.40;;;27.00;87.40;;;;;;5049513;28;20031;-70
2022/08/04 08:28:01;;;;;;;2.92;1.40;;;27.00;89.20;;;;;;5045357;28;20060;-70
2022/08/04 08:30:26;;;;;;;2.05;1.35;;;27.10;86.40;;;;;;5065474;28;20083;-71
2022/08/04 08:32:52;;;;;;;1.65;1.50;;;27.10;86.60;;;;;;5072698;28;20115;-71
2022/08/04 08:35:19;;;;;;;1.90;1.50;;;27.10;82.30;;;;;;5065276;28;20547;-70
2022/08/04 08:37:55;;;;;;;2.67;1.88;;;27.10;82.90;;;;;;5062183;28;20044;-70
2022/08/04 08:40:34;;;;;;;2.95;1.50;;;27.10;83.10;;;;;;5053246;28;21339;-70
2022/08/04 08:43:23;;;;;;;2.72;1.45;;;27.20;85.90;;;;;;5061863;28;20055;-71
2022/08/04 08:46:18;;;;;;;1.90;1.20;;;27.30;83.10;;;;;;5047437;28;20048;-71
2022/08/04 08:48:49;;;;;;;1.40;0.93;;;27.40;81.20;;;;;;5039825;28;20036;-69
2022/08/04 08:51:37;;;;;;;1.73;1.63;;;27.40;78.90;;;;;;5068521;28;20116;-72
2022/08/04 08:54:28;;;;;;;1.50;1.40;;;27.30;80.20;;;;;;5059100;28;20054;-70
2022/08/04 08:57:21;;;;;;;1.42;1.33;;;27.30;79.50;;;;;;5064576;28;20093;-70
2022/08/04 09:00:25;;;;;;;1.77;1.67;;;27.50;78.70;;;;;;5068049;28;20041;-71
2022/08/04 09:03:17;;;;;;;3.08;1.23;;;27.60;74.70;;;;;;5071165;28;20540;-71
2022/08/04 09:06:13;;;;;;;2.88;1.20;;;27.60;78.70;;;;;;5011085;28;20528;-70
2022/08/04 09:09:02;;;;;;;1.63;1.50;;;27.80;79.00;;;;;;5051048;28;20777;-71
2022/08/04 09:11:38;;;;;;;2.45;1.50;;;27.80;76.20;;;;;;5066212;28;20036;-71
2022/08/04 09:14:22;;;;;;;1.52;1.42;;;27.90;77.00;;;;;;5066469;28;20048;-71
2022/08/04 09:17:04;;;;;;;2.13;1.40;;;27.90;73.70;;;;;;5070341;28;20137;-71
2022/08/04 09:19:44;;;;;;;3.95;1.75;;;27.90;73.90;;;;;;5069093;28;20032;-73
2022/08/04 09:22:34;;;;;;;1.08;1.08;;;27.90;72.80;;;;;;5068077;28;20052;-70
2022/08/04 09:25:03;;;;;;;2.28;1.50;;;27.90;71.40;;;;;;5058673;28;20055;-70
2022/08/04 09:28:09;;;;;;;3.05;1.45;;;27.90;75.10;;;;;;5068765;28;20048;-64
2022/08/04 09:30:44;;;;;;;1.50;1.40;;;28.10;75.80;;;;;;5069259;28;20569;-63
2022/08/04 09:33:17;;;;;;;1.50;1.40;;;28.30;73.20;;;;;;5067866;28;20044;-64
2022/08/04 09:35:58;;;;;;;1.30;1.20;;;28.40;71.60;;;;;;5066372;28;20037;-64
2022/08/04 09:38:46;;;;;;;0.97;0.90;;;28.40;74.30;;;;;;5072367;28;20530;-64
2022/08/04 09:41:36;;;;;;;1.75;1.20;;;28.50;68.70;;;;;;5062243;28;21468;-65
2022/08/04 09:44:29;;;;;;;2.70;1.42;;;28.50;70.70;;;;;;5070197;28;20432;-64
2022/08/04 09:47:04;;;;;;;1.33;1.20;;;28.50;71.60;;;;;;5066612;28;20397;-65
2022/08/04 09:49:46;;;;;;;3.00;1.00;;;28.60;66.80;;;;;;5067462;28;20021;-64
2022/08/04 09:52:29;;;;;;;2.55;1.23;;;28.50;69.40;;;;;;5066917;28;20150;-65
2022/08/04 09:55:03;;;;;;;1.50;1.02;;;28.60;71.10;;;;;;5069874;28;20060;-64
2022/08/04 09:57:30;;;;;;;2.75;1.33;;;28.60;66.20;;;;;;5076623;28;20040;-65
2022/08/04 10:00:12;;;;;;;1.83;1.50;;;28.60;68.70;;;;;;5068763;28;20032;-65
2022/08/04 10:02:41;;;;;;;7.47;1.67;;;28.80;65.60;;;;;;5074827;28;20424;-65
2022/08/04 10:05:13;;;;;;;2.65;1.42;;;28.80;68.00;;;;;;5065693;28;20035;-65
2022/08/04 10:07:56;;;;;;;;;;;28.90;68.80;;;;;;5053845;28;20632;-65
2022/08/04 10:10:31;;;;;;;3.72;1.45;;;29.00;69.20;;;;;;5052445;28;19916;-65
2022/08/04 10:13:36;;;;;;;2.35;1.20;;;29.10;67.30;;;;;;5077042;28;20444;-65
2022/08/04 10:16:16;;;;;;;4.18;1.73;;;29.20;68.40;;;;;;5068770;28;20346;-65
2022/08/04 10:19:04;;;;;;;1.95;1.30;;;29.10;62.10;;;;;;5066604;28;20032;-66
2022/08/04 10:21:52;;;;;;;4.45;1.20;;;29.10;64.10;;;;;;5057416;28;20032;-66
2022/08/04 10:24:40;;;;;;;1.77;0.95;;;29.20;65.60;;;;;;5071203;28;20028;-66
2022/08/04 10:27:21;;;;;;;3.50;1.38;;;29.20;62.20;;;;;;5080487;28;20048;-66
2022/08/04 10:29:47;;;;;;;1.35;1.23;;;29.30;63.50;;;;;;5077678;28;20043;-66
2022/08/04 10:32:34;;;;;;;2.33;1.00;;;29.30;62.90;;;;;;5083961;28;20420;-66
2022/08/04 10:35:14;;;;;;;1.38;1.08;;;29.30;60.80;;;;;;5079510;28;20044;-66
2022/08/04 10:38:05;;;;;;;3.85;1.20;;;29.30;65.50;;;;;;5083822;28;20025;-66
2022/08/04 10:40:36;;;;;;;3.00;1.67;;;29.40;62.90;;;;;;5079466;28;20060;-66
2022/08/04 10:43:17;;;;;;;1.30;1.20;;;29.40;62.00;;;;;;5085209;28;20346;-66
2022/08/04 10:45:57;;;;;;;4.47;1.25;;;29.40;61.50;;;;;;5068930;28;20344;-65
2022/08/04 10:49:01;;;;;;;2.97;1.08;;;29.40;58.90;;;;;;5086086;28;20039;-65
2022/08/04 10:51:44;;;;;;;2.10;1.00;;;29.40;59.20;;;;;;5085080;28;20036;-66
2022/08/04 10:54:17;;;;;;;2.40;1.17;;;29.40;63.70;;;;;;5085926;28;20043;-66
2022/08/04 10:56:50;;;;;;;2.10;1.10;;;29.60;62.90;;;;;;5081368;28;20435;-66
2022/08/04 10:59:25;;;;;;;1.38;1.27;;;29.60;58.30;;;;;;5083936;28;20365;-66
2022/08/04 11:01:57;;;;;;;6.25;1.45;;;29.70;58.10;;;;;;5079660;28;20074;-66
2022/08/04 11:04:52;;;;;;;1.30;1.20;;;29.70;58.20;;;;;;5083323;28;20016;-66
2022/08/04 11:07:19;;;;;;;1.25;1.13;;;29.60;58.90;;;;;;5081142;28;20055;-66
2022/08/04 11:09:46;;;;;;;1.83;1.40;;;29.70;59.50;;;;;;5086246;28;20059;-66
2022/08/04 11:12:25;;;;;;;1.20;1.15;;;29.80;60.40;;;;;;5080368;28;20484;-66
2022/08/04 11:14:58;;;;;;;1.90;1.40;;;29.90;58.60;;;;;;5084228;28;20043;-66
2022/08/04 11:17:55;;;;;;;1.65;1.40;;;29.90;58.80;;;;;;5085702;28;20564;-66
2022/08/04 11:20:27;;;;;;;1.45;1.35;;;29.90;57.70;;;;;;5078145;28;20147;-67
2022/08/04 11:23:16;;;;;;;1.30;1.27;;;30.00;59.20;;;;;;5079921;28;20040;-66
2022/08/04 11:26:04;;;;;;;1.60;1.30;;;30.20;59.40;;;;;;5064252;28;20077;-66
2022/08/04 11:28:41;;;;;;;3.13;1.25;;;30.20;58.80;;;;;;5082568;28;20048;-66
2022/08/04 11:31:13;;;;;;;1.50;1.40;;;30.20;60.90;;;;;;5083094;28;20028;-66
2022/08/04 11:33:41;;;;;;;1.60;1.40;;;30.30;59.80;;;;;;5081965;28;20547;-65
2022/08/04 11:36:48;;;;;;;1.40;1.30;;;30.30;60.50;;;;;;5083938;28;20028;-66
2022/08/04 11:39:19;;;;;;;2.15;1.75;;;30.40;62.30;;;;;;5079886;28;20044;-65
2022/08/04 11:41:51;;;;;;;1.15;1.08;;;30.30;56.90;;;;;;5080943;28;20059;-65
2022/08/04 11:44:40;;;;;;;1.75;1.40;;;30.20;59.10;;;;;;5081702;28;20032;-66
2022/08/04 11:47:19;;;;;;;1.88;1.30;;;30.20;59.80;;;;;;5081729;28;20070;-66
2022/08/04 11:49:51;;;;;;;3.70;1.40;;;30.30;58.70;;;;;;5083807;28;20036;-66
2022/08/04 11:52:19;;;;;;;1.58;1.40;;;30.40;57.70;;;;;;5084488;28;20043;-66
2022/08/04 11:54:46;;;;;;;1.60;1.50;;;30.40;57.30;;;;;;5082606;28;20028;-66
2022/08/04 11:57:11;;;;;;;1.40;1.30;;;30.30;56.30;;;;;;5080184;28;20040;-66
2022/08/04 11:59:39;;;;;;;1.77;1.33;;;30.30;57.50;;;;;;5081404;28;20062;-66
2022/08/04 12:02:52;;;;;;;2.75;1.60;;;30.40;60.70;;;;;;5082711;28;20040;-66
2022/08/04 12:05:21;;;;;;;1.77;1.45;;;30.60;56.40;;;;;;4980791;28;20050;-66
2022/08/04 12:08:23;;;;;;;2.00;1.67;;;30.60;56.60;;;;;;4980472;28;20041;-66
2022/08/04 12:11:26;;;;;;;2.88;1.25;;;30.60;56.80;;;;;;5052214;28;20040;-66
2022/08/04 12:14:24;;;;;;;2.88;1.40;;;30.70;56.80;;;;;;5077829;28;20477;-65
2022/08/04 12:17:00;;;;;;;1.80;1.50;;;30.70;56.10;;;;;;5061965;28;20074;-66
2022/08/04 12:19:35;;;;;;;2.42;1.35;;;30.60;56.10;;;;;;5075363;28;20036;-65
2022/08/04 12:22:07;;;;;;;6.55;1.35;;;30.50;55.10;;;;;;5076070;28;20485;-65
2022/08/04 12:24:35;;;;;;;;;;;30.50;55.30;;;;;;5083176;28;20063;-66
2022/08/04 13:01:28;;;;;;;1.58;1.48;;;30.80;55.20;;;;;;5065788;28;20548;-66
2022/08/04 13:04:10;;;;;;;1.80;1.70;;;31.00;54.90;;;;;;5065085;28;20075;-66
2022/08/04 13:06:38;;;;;;;1.60;1.50;;;31.00;53.10;;;;;;5062272;28;20115;-66
2022/08/04 13:09:06;;;;;;;2.20;1.65;;;30.80;51.90;;;;;;5059756;28;20091;-65
2022/08/04 13:11:51;;;;;;;1.40;1.30;;;30.70;52.30;;;;;;5061588;28;20021;-66
2022/08/04 13:14:18;;;;;;;1.92;1.40;;;30.70;53.90;;;;;;5058955;28;20042;-66
2022/08/04 13:16:44;;;;;;;1.75;1.42;;;30.70;52.90;;;;;;5057077;28;20788;-66
2022/08/04 13:19:11;;;;;;;2.55;1.60;;;30.80;54.00;;;;;;5065143;28;20037;-65
2022/08/04 13:21:43;;;;;;;1.55;1.20;;;31.00;54.50;;;;;;5057681;28;20050;-66
2022/08/04 13:24:16;;;;;;;1.30;1.20;;;31.00;54.20;;;;;;5059598;28;20534;-66
2022/08/04 13:27:00;;;;;;;1.92;1.38;;;31.10;51.80;;;;;;5060224;28;20055;-65
2022/08/04 13:29:44;;;;;;;3.53;1.80;;;30.90;50.80;;;;;;5066056;28;20105;-65
2022/08/04 13:32:15;;;;;;;3.42;1.50;;;30.80;51.90;;;;;;5066213;28;20040;-65
2022/08/04 13:34:42;;;;;;;1.50;1.40;;;30.90;51.70;;;;;;5061473;28;20036;-65
2022/08/04 13:37:09;;;;;;;1.65;1.48;;;30.90;50.90;;;;;;5064230;28;20174;-66
2022/08/04 13:39:36;;;;;;;3.72;1.60;;;30.80;52.50;;;;;;5061874;28;20051;-66
2022/08/04 13:42:11;;;;;;;2.00;1.52;;;31.00;52.50;;;;;;5065084;28;20049;-65
2022/08/04 13:44:38;;;;;;;2.17;1.23;;;31.10;52.00;;;;;;5060705;28;20099;-66
2022/08/04 13:47:14;;;;;;;1.25;1.25;;;31.10;52.40;;;;;;5060545;28;20040;-66
2022/08/04 13:49:40;;;;;;;2.88;1.50;;;31.10;50.00;;;;;;5065822;28;20077;-66
2022/08/04 13:52:08;;;;;;;1.30;1.20;;;31.00;51.90;;;;;;5063873;28;20071;-65
2022/08/04 13:54:45;;;;;;;1.83;1.33;;;30.80;51.50;;;;;;5039741;28;20569;-65
2022/08/04 13:57:26;;;;;;;4.15;1.65;;;30.80;50.00;;;;;;5061700;28;20032;-65
2022/08/04 14:00:04;;;;;;;3.35;1.67;;;30.90;51.50;;;;;;5064730;28;20037;-66
2022/08/04 14:02:36;;;;;;;1.50;1.40;;;31.00;50.60;;;;;;5087017;28;20040;-65
2022/08/04 14:05:08;;;;;;;3.03;1.70;;;31.00;50.40;;;;;;5083240;28;20036;-66
2022/08/04 14:07:43;;;;;;;1.52;1.20;;;30.90;50.30;;;;;;5088973;28;20028;-66
2022/08/04 14:10:11;;;;;;;3.45;1.40;;;30.90;50.60;;;;;;5087727;28;20028;-65
2022/08/04 14:12:44;;;;;;;1.55;1.40;;;31.00;54.10;;;;;;5082035;28;20027;-65
2022/08/04 14:15:39;;;;;;;1.67;1.20;;;31.10;52.40;;;;;;5084579;28;20090;-71